sensor_id;sensor_type;location;lat;lon;timestamp;pressure;altitude;pressure_sealevel;temperature;humidity
36598;BME280;22607;49.550;11.940;2023-02-20T00:01:58;97660.19;;;7.28;100.00
36598;BME280;22607;49.550;11.940;2023-02-20T00:04:25;97649.19;;;7.34;100.00
36598;BME280;22607;49.550;11.940;2023-02-20T00:06:51;97651.66;;;7.26;100.00
36598;BME280;22607;49.550;11.940;2023-02-20T00:09:18;97664.06;;;7.34;100.00
36598;BME280;22607;49.550;11.940;2023-02-20T00:11:45;97665.16;;;7.31;100.00
36598;BME280;22607;49.550;11.940;2023-02-20T00:14:12;97648.78;;;7.29;100.00
36598;BME280;22607;49.550;11.940;2023-02-20T00:16:38;97653.03;;;7.30;100.00
36598;BME280;22607;49.550;11.940;2023-02-20T00:19:05;97643.78;;;7.16;100.00
36598;BME280;22607;49.550;11.940;2023-02-20T00:21:44;97656.34;;;7.01;100.00
36598;BME280;22607;49.550;11.940;2023-02-20T00:24:10;97648.34;;;7.24;100.00
36598;BME280;22607;49.550;11.940;2023-02-20T00:26:36;97658.25;;;7.30;100.00
36598;BME280;22607;49.550;11.940;2023-02-20T00:29:04;97661.78;;;7.51;100.00
36598;BME280;22607;49.550;11.940;2023-02-20T00:31:30;97672.03;;;7.32;100.00
36598;BME280;22607;49.550;11.940;2023-02-20T00:33:58;97665.91;;;7.43;100.00
36598;BME280;22607;49.550;11.940;2023-02-20T00:36:24;97672.22;;;7.41;100.00
36598;BME280;22607;49.550;11.940;2023-02-20T00:38:51;97668.22;;;7.37;100.00
36598;BME280;22607;49.550;11.940;2023-02-20T00:41:17;97658.56;;;7.37;100.00
36598;BME280;22607;49.550;11.940;2023-02-20T00:43:44;97662.25;;;7.25;100.00
36598;BME280;22607;49.550;11.940;2023-02-20T00:46:11;97663.00;;;7.46;100.00
36598;BME280;22607;49.550;11.940;2023-02-20T00:48:39;97664.53;;;7.18;100.00
36598;BME280;22607;49.550;11.940;2023-02-20T00:51:06;97659.63;;;7.25;100.00
36598;BME280;22607;49.550;11.940;2023-02-20T00:53:33;97645.91;;;7.32;100.00
36598;BME280;22607;49.550;11.940;2023-02-20T00:55:59;97644.16;;;7.12;100.00
36598;BME280;22607;49.550;11.940;2023-02-20T00:58:26;97651.56;;;7.06;100.00
36598;BME280;22607;49.550;11.940;2023-02-20T01:00:52;97652.31;;;6.97;100.00
36598;BME280;22607;49.550;11.940;2023-02-20T01:03:19;97660.97;;;7.19;100.00
36598;BME280;22607;49.550;11.940;2023-02-20T01:05:47;97656.28;;;7.13;100.00
36598;BME280;22607;49.550;11.940;2023-02-20T01:08:13;97655.44;;;7.12;100.00
36598;BME280;22607;49.550;11.940;2023-02-20T01:10:40;97654.91;;;7.18;100.00
36598;BME280;22607;49.550;11.940;2023-02-20T01:13:06;97658.22;;;7.20;100.00
36598;BME280;22607;49.550;11.940;2023-02-20T01:15:33;97661.72;;;7.31;100.00
36598;BME280;22607;49.550;11.940;2023-02-20T01:18:00;97657.81;;;7.25;100.00
36598;BME280;22607;49.550;11.940;2023-02-20T01:20:26;97675.09;;;7.38;100.00
36598;BME280;22607;49.550;11.940;2023-02-20T01:22:53;97668.63;;;7.42;100.00
36598;BME280;22607;49.550;11.940;2023-02-20T01:25:19;97662.88;;;7.48;100.00
36598;BME280;22607;49.550;11.940;2023-02-20T01:27:46;97666.56;;;7.35;100.00
36598;BME280;22607;49.550;11.940;2023-02-20T01:30:12;97663.22;;;7.33;100.00
36598;BME280;22607;49.550;11.940;2023-02-20T01:32:39;97664.19;;;7.32;100.00
36598;BME280;22607;49.550;11.940;2023-02-20T01:35:06;97664.88;;;7.34;100.00
36598;BME280;22607;49.550;11.940;2023-02-20T01:37:33;97658.66;;;7.26;100.00
36598;BME280;22607;49.550;11.940;2023-02-20T01:39:59;97654.53;;;7.23;100.00
36598;BME280;22607;49.550;11.940;2023-02-20T01:42:29;97649.59;;;7.30;100.00
36598;BME280;22607;49.550;11.940;2023-02-20T01:47:42;97647.25;;;7.27;100.00
36598;BME280;22607;49.550;11.940;2023-02-20T01:50:09;97638.84;;;7.23;100.00
36598;BME280;22607;49.550;11.940;2023-02-20T01:52:36;97644.25;;;7.31;100.00
36598;BME280;22607;49.550;11.940;2023-02-20T01:55:11;97638.72;;;7.25;100.00
36598;BME280;22607;49.550;11.940;2023-02-20T01:57:41;97632.41;;;7.27;100.00
36598;BME280;22607;49.550;11.940;2023-02-20T02:00:11;97641.03;;;7.18;100.00
36598;BME280;22607;49.550;11.940;2023-02-20T02:02:42;97647.66;;;7.22;100.00
36598;BME280;22607;49.550;11.940;2023-02-20T02:05:11;97648.59;;;7.21;100.00
36598;BME280;22607;49.550;11.940;2023-02-20T02:07:38;97652.16;;;7.20;100.00
36598;BME280;22607;49.550;11.940;2023-02-20T02:10:21;97652.81;;;7.12;100.00
36598;BME280;22607;49.550;11.940;2023-02-20T02:12:52;97644.88;;;7.23;100.00
36598;BME280;22607;49.550;11.940;2023-02-20T02:15:21;97642.88;;;7.37;100.00
36598;BME280;22607;49.550;11.940;2023-02-20T02:21:08;97627.19;;;7.27;100.00
36598;BME280;22607;49.550;11.940;2023-02-20T02:26:43;97624.41;;;7.19;100.00
36598;BME280;22607;49.550;11.940;2023-02-20T02:37:49;97599.91;;;7.20;100.00
36598;BME280;22607;49.550;11.940;2023-02-20T02:40:31;97607.63;;;7.21;100.00
36598;BME280;22607;49.550;11.940;2023-02-20T02:48:27;97603.50;;;7.19;100.00
36598;BME280;22607;49.550;11.940;2023-02-20T02:51:19;97600.88;;;7.19;100.00
36598;BME280;22607;49.550;11.940;2023-02-20T02:54:10;97608.59;;;7.30;100.00
36598;BME280;22607;49.550;11.940;2023-02-20T02:56:42;97611.75;;;7.24;100.00
36598;BME280;22607;49.550;11.940;2023-02-20T02:59:16;97604.88;;;7.23;100.00
36598;BME280;22607;49.550;11.940;2023-02-20T03:01:59;97601.53;;;7.11;100.00
36598;BME280;22607;49.550;11.940;2023-02-20T03:04:27;97603.59;;;7.07;100.00
36598;BME280;22607;49.550;11.940;2023-02-20T03:06:59;97605.44;;;7.27;100.00
36598;BME280;22607;49.550;11.940;2023-02-20T03:09:40;97611.50;;;6.96;100.00
36598;BME280;22607;49.550;11.940;2023-02-20T03:12:11;97604.28;;;7.09;100.00
36598;BME280;22607;49.550;11.940;2023-02-20T03:14:47;97604.03;;;7.13;100.00
36598;BME280;22607;49.550;11.940;2023-02-20T03:17:49;97600.72;;;7.11;100.00
36598;BME280;22607;49.550;11.940;2023-02-20T03:20:20;97603.13;;;7.02;100.00
36598;BME280;22607;49.550;11.940;2023-02-20T03:22:53;97605.13;;;7.10;100.00
36598;BME280;22607;49.550;11.940;2023-02-20T03:25:30;97603.25;;;7.22;100.00
36598;BME280;22607;49.550;11.940;2023-02-20T03:28:09;97605.44;;;7.27;100.00
36598;BME280;22607;49.550;11.940;2023-02-20T03:30:40;97603.19;;;7.12;100.00
36598;BME280;22607;49.550;11.940;2023-02-20T03:33:42;97605.56;;;7.15;100.00
36598;BME280;22607;49.550;11.940;2023-02-20T03:36:45;97608.97;;;7.16;100.00
36598;BME280;22607;49.550;11.940;2023-02-20T03:39:36;97599.41;;;7.26;100.00
36598;BME280;22607;49.550;11.940;2023-02-20T03:42:24;97608.28;;;7.14;100.00
36598;BME280;22607;49.550;11.940;2023-02-20T03:45:12;97603.13;;;7.02;100.00
36598;BME280;22607;49.550;11.940;2023-02-20T03:47:43;97606.41;;;6.94;100.00
36598;BME280;22607;49.550;11.940;2023-02-20T03:50:12;97613.03;;;6.99;100.00
36598;BME280;22607;49.550;11.940;2023-02-20T03:52:58;97608.63;;;6.99;100.00
36598;BME280;22607;49.550;11.940;2023-02-20T03:55:25;97615.16;;;7.15;100.00
36598;BME280;22607;49.550;11.940;2023-02-20T03:57:55;97613.22;;;7.07;100.00
36598;BME280;22607;49.550;11.940;2023-02-20T04:00:26;97601.91;;;7.06;100.00
36598;BME280;22607;49.550;11.940;2023-02-20T04:03:00;97599.75;;;7.12;100.00
36598;BME280;22607;49.550;11.940;2023-02-20T04:05:33;97601.66;;;7.09;100.00
36598;BME280;22607;49.550;11.940;2023-02-20T04:08:06;97604.72;;;7.15;100.00
36598;BME280;22607;49.550;11.940;2023-02-20T04:10:38;97607.72;;;7.10;100.00
36598;BME280;22607;49.550;11.940;2023-02-20T04:13:06;97608.38;;;7.02;100.00
36598;BME280;22607;49.550;11.940;2023-02-20T04:15:33;97610.78;;;7.15;100.00
36598;BME280;22607;49.550;11.940;2023-02-20T04:18:09;97607.88;;;7.18;100.00
36598;BME280;22607;49.550;11.940;2023-02-20T04:20:36;97614.84;;;7.08;100.00
36598;BME280;22607;49.550;11.940;2023-02-20T04:23:07;97620.63;;;7.12;100.00
36598;BME280;22607;49.550;11.940;2023-02-20T04:28:10;97610.03;;;7.03;100.00
36598;BME280;22607;49.550;11.940;2023-02-20T04:30:39;97605.25;;;7.08;100.00
36598;BME280;22607;49.550;11.940;2023-02-20T04:33:06;97603.19;;;7.12;100.00
36598;BME280;22607;49.550;11.940;2023-02-20T04:35:32;97599.91;;;7.20;100.00
36598;BME280;22607;49.550;11.940;2023-02-20T04:37:59;97606.72;;;7.01;100.00
36598;BME280;22607;49.550;11.940;2023-02-20T04:40:25;97599.41;;;6.95;100.00
36598;BME280;22607;49.550;11.940;2023-02-20T04:42:52;97614.69;;;7.00;100.00
36598;BME280;22607;49.550;11.940;2023-02-20T04:45:18;97617.38;;;6.88;100.00
36598;BME280;22607;49.550;11.940;2023-02-20T04:47:45;97611.38;;;6.98;100.00
36598;BME280;22607;49.550;11.940;2023-02-20T04:50:27;97617.22;;;7.11;100.00
36598;BME280;22607;49.550;11.940;2023-02-20T04:52:54;97625.06;;;7.21;100.00
36598;BME280;22607;49.550;11.940;2023-02-20T04:55:20;97620.72;;;7.00;100.00
36598;BME280;22607;49.550;11.940;2023-02-20T04:57:47;97616.41;;;6.89;100.00
36598;BME280;22607;49.550;11.940;2023-02-20T05:00:16;97619.09;;;6.99;100.00
36598;BME280;22607;49.550;11.940;2023-02-20T05:02:43;97617.69;;;6.95;100.00
36598;BME280;22607;49.550;11.940;2023-02-20T05:05:17;97629.88;;;6.85;100.00
36598;BME280;22607;49.550;11.940;2023-02-20T05:07:44;97630.81;;;6.83;100.00
36598;BME280;22607;49.550;11.940;2023-02-20T05:10:19;97623.97;;;7.14;100.00
36598;BME280;22607;49.550;11.940;2023-02-20T05:12:46;97624.22;;;7.11;100.00
36598;BME280;22607;49.550;11.940;2023-02-20T05:15:13;97627.56;;;7.22;100.00
36598;BME280;22607;49.550;11.940;2023-02-20T05:17:40;97623.66;;;7.07;100.00
36598;BME280;22607;49.550;11.940;2023-02-20T05:20:07;97629.09;;;6.94;100.00
36598;BME280;22607;49.550;11.940;2023-02-20T05:22:34;97629.72;;;6.86;100.00
36598;BME280;22607;49.550;11.940;2023-02-20T05:25:00;97623.59;;;6.97;100.00
36598;BME280;22607;49.550;11.940;2023-02-20T05:27:27;97636.91;;;7.15;100.00
36598;BME280;22607;49.550;11.940;2023-02-20T05:29:56;97634.75;;;6.99;100.00
36598;BME280;22607;49.550;11.940;2023-02-20T05:32:24;97632.66;;;7.24;100.00
36598;BME280;22607;49.550;11.940;2023-02-20T05:34:52;97633.69;;;7.12;100.00
36598;BME280;22607;49.550;11.940;2023-02-20T05:37:21;97639.66;;;6.92;100.00
36598;BME280;22607;49.550;11.940;2023-02-20T05:39:48;97650.25;;;6.91;100.00
36598;BME280;22607;49.550;11.940;2023-02-20T05:42:15;97631.88;;;7.02;100.00
36598;BME280;22607;49.550;11.940;2023-02-20T05:44:42;97641.38;;;7.03;100.00
36598;BME280;22607;49.550;11.940;2023-02-20T05:47:08;97641.28;;;7.15;100.00
36598;BME280;22607;49.550;11.940;2023-02-20T05:49:35;97631.81;;;7.14;100.00
36598;BME280;22607;49.550;11.940;2023-02-20T05:52:04;97629.53;;;6.99;100.00
36598;BME280;22607;49.550;11.940;2023-02-20T05:54:38;97629.47;;;6.89;100.00
36598;BME280;22607;49.550;11.940;2023-02-20T05:57:06;97629.34;;;6.91;100.00
36598;BME280;22607;49.550;11.940;2023-02-20T05:59:39;97629.16;;;6.82;100.00
36598;BME280;22607;49.550;11.940;2023-02-20T06:02:05;97631.13;;;6.69;100.00
36598;BME280;22607;49.550;11.940;2023-02-20T06:04:32;97645.38;;;6.86;100.00
36598;BME280;22607;49.550;11.940;2023-02-20T06:06:59;97638.91;;;6.80;100.00
36598;BME280;22607;49.550;11.940;2023-02-20T06:09:25;97639.03;;;7.00;100.00
36598;BME280;22607;49.550;11.940;2023-02-20T06:11:55;97655.28;;;6.82;100.00
36598;BME280;22607;49.550;11.940;2023-02-20T06:14:24;97655.78;;;6.76;100.00
36598;BME280;22607;49.550;11.940;2023-02-20T06:16:51;97655.72;;;6.88;100.00
36598;BME280;22607;49.550;11.940;2023-02-20T06:19:20;97668.59;;;7.01;100.00
36598;BME280;22607;49.550;11.940;2023-02-20T06:21:49;97675.19;;;6.83;100.00
36598;BME280;22607;49.550;11.940;2023-02-20T06:24:16;97673.50;;;6.94;100.00
36598;BME280;22607;49.550;11.940;2023-02-20T06:26:44;97670.59;;;6.97;100.00
36598;BME280;22607;49.550;11.940;2023-02-20T06:29:11;97661.13;;;6.96;100.00
36598;BME280;22607;49.550;11.940;2023-02-20T06:31:38;97666.16;;;6.88;100.00
36598;BME280;22607;49.550;11.940;2023-02-20T06:34:06;97654.25;;;6.95;100.00
36598;BME280;22607;49.550;11.940;2023-02-20T06:36:35;97663.41;;;6.89;100.00
36598;BME280;22607;49.550;11.940;2023-02-20T06:39:12;97657.22;;;6.90;100.00
36598;BME280;22607;49.550;11.940;2023-02-20T06:41:39;97664.13;;;6.91;100.00
36598;BME280;22607;49.550;11.940;2023-02-20T06:44:06;97662.75;;;6.87;100.00
36598;BME280;22607;49.550;11.940;2023-02-20T06:46:33;97677.19;;;6.70;100.00
36598;BME280;22607;49.550;11.940;2023-02-20T06:49:00;97679.50;;;6.85;100.00
36598;BME280;22607;49.550;11.940;2023-02-20T06:51:29;97685.97;;;6.90;100.00
36598;BME280;22607;49.550;11.940;2023-02-20T06:53:56;97683.75;;;7.07;100.00
36598;BME280;22607;49.550;11.940;2023-02-20T06:56:26;97681.81;;;7.09;100.00
36598;BME280;22607;49.550;11.940;2023-02-20T06:58:54;97683.97;;;7.04;100.00
36598;BME280;22607;49.550;11.940;2023-02-20T07:01:23;97680.41;;;7.05;100.00
36598;BME280;22607;49.550;11.940;2023-02-20T07:03:52;97659.25;;;7.08;100.00
36598;BME280;22607;49.550;11.940;2023-02-20T07:06:21;97665.38;;;6.97;100.00
36598;BME280;22607;49.550;11.940;2023-02-20T07:08:48;97656.78;;;7.06;100.00
36598;BME280;22607;49.550;11.940;2023-02-20T07:11:18;97662.66;;;6.99;100.00
36598;BME280;22607;49.550;11.940;2023-02-20T07:13:45;97667.69;;;6.90;100.00
36598;BME280;22607;49.550;11.940;2023-02-20T07:16:12;97671.22;;;7.11;100.00
36598;BME280;22607;49.550;11.940;2023-02-20T07:18:39;97675.91;;;7.07;100.00
36598;BME280;22607;49.550;11.940;2023-02-20T07:21:06;97689.16;;;6.94;100.00
36598;BME280;22607;49.550;11.940;2023-02-20T07:23:40;97676.22;;;7.14;100.00
36598;BME280;22607;49.550;11.940;2023-02-20T07:26:23;97678.56;;;7.17;100.00
36598;BME280;22607;49.550;11.940;2023-02-20T07:28:50;97673.28;;;7.07;100.00
36598;BME280;22607;49.550;11.940;2023-02-20T07:31:20;97678.81;;;7.14;100.00
36598;BME280;22607;49.550;11.940;2023-02-20T07:33:47;97683.72;;;7.28;100.00
36598;BME280;22607;49.550;11.940;2023-02-20T07:36:14;97667.75;;;7.00;100.00
36598;BME280;22607;49.550;11.940;2023-02-20T07:38:41;97666.97;;;7.09;100.00
36598;BME280;22607;49.550;11.940;2023-02-20T07:41:09;97661.63;;;7.11;100.00
36598;BME280;22607;49.550;11.940;2023-02-20T07:43:35;97652.44;;;7.17;100.00
36598;BME280;22607;49.550;11.940;2023-02-20T07:46:02;97658.59;;;7.16;100.00
36598;BME280;22607;49.550;11.940;2023-02-20T07:48:28;97672.78;;;7.44;100.00
36598;BME280;22607;49.550;11.940;2023-02-20T07:50:55;97683.28;;;7.33;100.00
36598;BME280;22607;49.550;11.940;2023-02-20T07:53:21;97673.69;;;7.33;100.00
36598;BME280;22607;49.550;11.940;2023-02-20T07:55:48;97672.28;;;7.29;100.00
36598;BME280;22607;49.550;11.940;2023-02-20T07:58:18;97675.63;;;7.31;100.00
36598;BME280;22607;49.550;11.940;2023-02-20T08:00:44;97680.00;;;7.62;100.00
36598;BME280;22607;49.550;11.940;2023-02-20T08:03:11;97692.19;;;7.52;100.00
36598;BME280;22607;49.550;11.940;2023-02-20T08:05:37;97670.63;;;7.59;100.00
36598;BME280;22607;49.550;11.940;2023-02-20T08:08:15;97667.81;;;7.92;100.00
36598;BME280;22607;49.550;11.940;2023-02-20T08:10:49;97661.22;;;7.98;100.00
36598;BME280;22607;49.550;11.940;2023-02-20T08:13:25;97666.34;;;8.19;100.00
36598;BME280;22607;49.550;11.940;2023-02-20T08:15:51;97670.19;;;8.35;100.00
36598;BME280;22607;49.550;11.940;2023-02-20T08:18:18;97666.78;;;8.34;99.15
36598;BME280;22607;49.550;11.940;2023-02-20T08:20:49;97671.03;;;8.75;96.72
36598;BME280;22607;49.550;11.940;2023-02-20T08:23:19;97665.53;;;8.78;99.18
36598;BME280;22607;49.550;11.940;2023-02-20T08:25:47;97657.34;;;9.11;91.38
36598;BME280;22607;49.550;11.940;2023-02-20T08:28:13;97659.19;;;8.90;93.00
36598;BME280;22607;49.550;11.940;2023-02-20T08:30:40;97655.19;;;8.76;96.46
36598;BME280;22607;49.550;11.940;2023-02-20T08:33:07;97669.75;;;8.00;99.16
36598;BME280;22607;49.550;11.940;2023-02-20T08:35:34;97660.56;;;8.35;100.00
36598;BME280;22607;49.550;11.940;2023-02-20T08:38:06;97647.03;;;8.00;98.51
36598;BME280;22607;49.550;11.940;2023-02-20T08:40:34;97636.16;;;8.35;98.51
36598;BME280;22607;49.550;11.940;2023-02-20T08:43:00;97626.53;;;8.35;98.25
36598;BME280;22607;49.550;11.940;2023-02-20T08:45:27;97625.44;;;8.28;96.87
36598;BME280;22607;49.550;11.940;2023-02-20T08:47:57;97621.56;;;8.32;96.89
36598;BME280;22607;49.550;11.940;2023-02-20T08:50:29;97618.41;;;8.38;97.18
36598;BME280;22607;49.550;11.940;2023-02-20T08:52:55;97612.16;;;9.27;93.18
36598;BME280;22607;49.550;11.940;2023-02-20T08:55:22;97606.59;;;9.40;89.54
36598;BME280;22607;49.550;11.940;2023-02-20T08:57:48;97601.69;;;9.55;87.98
36598;BME280;22607;49.550;11.940;2023-02-20T09:00:15;97587.66;;;9.92;87.27
36598;BME280;22607;49.550;11.940;2023-02-20T09:02:47;97605.78;;;10.04;86.16
36598;BME280;22607;49.550;11.940;2023-02-20T09:05:15;97593.84;;;9.73;83.05
36598;BME280;22607;49.550;11.940;2023-02-20T09:07:42;97612.63;;;9.40;86.66
36598;BME280;22607;49.550;11.940;2023-02-20T09:10:08;97610.59;;;9.34;85.82
36598;BME280;22607;49.550;11.940;2023-02-20T09:12:35;97597.81;;;10.32;82.07
36598;BME280;22607;49.550;11.940;2023-02-20T09:15:02;97592.78;;;11.18;77.78
36598;BME280;22607;49.550;11.940;2023-02-20T09:17:30;97594.41;;;11.46;75.76
36598;BME280;22607;49.550;11.940;2023-02-20T09:19:57;97595.28;;;11.63;72.93
36598;BME280;22607;49.550;11.940;2023-02-20T09:22:25;97587.50;;;11.53;71.88
36598;BME280;22607;49.550;11.940;2023-02-20T09:24:53;97602.56;;;11.86;71.41
36598;BME280;22607;49.550;11.940;2023-02-20T09:27:20;97589.53;;;11.76;70.76
36598;BME280;22607;49.550;11.940;2023-02-20T09:29:49;97589.22;;;11.79;69.85
36598;BME280;22607;49.550;11.940;2023-02-20T09:32:16;97574.28;;;11.96;70.66
36598;BME280;22607;49.550;11.940;2023-02-20T09:34:42;97563.75;;;11.96;70.16
36598;BME280;22607;49.550;11.940;2023-02-20T09:37:13;97562.47;;;12.25;69.64
36598;BME280;22607;49.550;11.940;2023-02-20T09:39:39;97565.81;;;11.51;68.21
36598;BME280;22607;49.550;11.940;2023-02-20T09:42:19;97560.50;;;12.11;66.74
36598;BME280;22607;49.550;11.940;2023-02-20T09:50:14;97531.47;;;12.69;64.66
36598;BME280;22607;49.550;11.940;2023-02-20T09:52:45;97532.00;;;13.04;64.51
36598;BME280;22607;49.550;11.940;2023-02-20T09:55:22;97538.66;;;12.92;64.76
36598;BME280;22607;49.550;11.940;2023-02-20T09:57:52;97534.44;;;12.74;62.08
36598;BME280;22607;49.550;11.940;2023-02-20T10:00:26;97532.66;;;12.66;63.15
36598;BME280;22607;49.550;11.940;2023-02-20T10:05:36;97538.09;;;12.56;62.14
36598;BME280;22607;49.550;11.940;2023-02-20T10:08:03;97516.00;;;12.57;63.67
36598;BME280;22607;49.550;11.940;2023-02-20T10:10:31;97517.06;;;12.96;63.03
36598;BME280;22607;49.550;11.940;2023-02-20T10:13:38;97528.03;;;11.85;64.00
36598;BME280;22607;49.550;11.940;2023-02-20T10:22:17;97517.94;;;12.80;61.88
36598;BME280;22607;49.550;11.940;2023-02-20T10:28:08;97513.69;;;13.11;58.05
36598;BME280;22607;49.550;11.940;2023-02-20T10:30:40;97531.53;;;13.49;58.96
36598;BME280;22607;49.550;11.940;2023-02-20T10:38:21;97518.56;;;12.91;60.06
36598;BME280;22607;49.550;11.940;2023-02-20T10:43:36;97500.16;;;12.82;58.52
36598;BME280;22607;49.550;11.940;2023-02-20T10:46:16;97504.50;;;12.58;60.60
36598;BME280;22607;49.550;11.940;2023-02-20T10:48:45;97492.03;;;12.02;61.36
36598;BME280;22607;49.550;11.940;2023-02-20T10:51:25;97489.56;;;12.09;60.87
36598;BME280;22607;49.550;11.940;2023-02-20T10:54:06;97478.69;;;12.85;60.03
36598;BME280;22607;49.550;11.940;2023-02-20T11:01:54;97465.19;;;13.20;58.46
36598;BME280;22607;49.550;11.940;2023-02-20T11:04:28;97463.84;;;13.24;59.98
36598;BME280;22607;49.550;11.940;2023-02-20T11:07:00;97463.97;;;12.68;59.22
36598;BME280;22607;49.550;11.940;2023-02-20T11:09:28;97462.28;;;12.75;59.06
36598;BME280;22607;49.550;11.940;2023-02-20T11:11:55;97451.63;;;13.00;59.23
36598;BME280;22607;49.550;11.940;2023-02-20T11:14:44;97434.63;;;13.58;59.02
36598;BME280;22607;49.550;11.940;2023-02-20T11:17:15;97438.09;;;13.03;59.77
36598;BME280;22607;49.550;11.940;2023-02-20T11:19:58;97437.53;;;13.16;59.87
36598;BME280;22607;49.550;11.940;2023-02-20T11:22:46;97429.19;;;12.72;61.14
36598;BME280;22607;49.550;11.940;2023-02-20T11:27:47;97421.94;;;13.06;59.00
36598;BME280;22607;49.550;11.940;2023-02-20T11:32:48;97396.25;;;13.00;59.78
36598;BME280;22607;49.550;11.940;2023-02-20T11:37:45;97414.44;;;12.46;60.21
36598;BME280;22607;49.550;11.940;2023-02-20T11:40:29;97403.59;;;12.81;59.92
36598;BME280;22607;49.550;11.940;2023-02-20T11:43:10;97394.03;;;12.49;61.42
36598;BME280;22607;49.550;11.940;2023-02-20T11:45:40;97400.44;;;12.54;59.75
36598;BME280;22607;49.550;11.940;2023-02-20T11:53:22;97390.22;;;12.51;60.67
36598;BME280;22607;49.550;11.940;2023-02-20T11:56:06;97389.75;;;12.47;61.92
36598;BME280;22607;49.550;11.940;2023-02-20T11:58:34;97380.66;;;12.58;62.74
36598;BME280;22607;49.550;11.940;2023-02-20T12:01:01;97386.16;;;12.40;62.55
36598;BME280;22607;49.550;11.940;2023-02-20T12:03:33;97390.75;;;13.10;59.64
36598;BME280;22607;49.550;11.940;2023-02-20T12:09:06;97393.84;;;12.58;61.09
36598;BME280;22607;49.550;11.940;2023-02-20T12:11:38;97390.66;;;12.71;60.33
36598;BME280;22607;49.550;11.940;2023-02-20T12:14:05;97384.88;;;12.28;61.79
36598;BME280;22607;49.550;11.940;2023-02-20T12:19:20;97371.22;;;12.24;60.17
36598;BME280;22607;49.550;11.940;2023-02-20T12:22:14;97364.34;;;12.15;60.45
36598;BME280;22607;49.550;11.940;2023-02-20T12:30:05;97349.75;;;12.44;61.99
36598;BME280;22607;49.550;11.940;2023-02-20T12:33:05;97351.88;;;12.08;61.47
36598;BME280;22607;49.550;11.940;2023-02-20T12:35:54;97349.06;;;12.10;60.75
36598;BME280;22607;49.550;11.940;2023-02-20T12:38:39;97328.16;;;12.08;61.83
36598;BME280;22607;49.550;11.940;2023-02-20T12:44:44;97331.53;;;12.34;61.53
36598;BME280;22607;49.550;11.940;2023-02-20T12:49:53;97308.03;;;12.56;60.42
36598;BME280;22607;49.550;11.940;2023-02-20T13:01:00;97303.03;;;12.93;59.34
36598;BME280;22607;49.550;11.940;2023-02-20T13:03:38;97295.19;;;13.08;60.10
36598;BME280;22607;49.550;11.940;2023-02-20T13:06:13;97294.38;;;13.07;58.84
36598;BME280;22607;49.550;11.940;2023-02-20T13:11:33;97292.66;;;12.91;58.64
36598;BME280;22607;49.550;11.940;2023-02-20T13:14:18;97274.81;;;12.78;59.37
36598;BME280;22607;49.550;11.940;2023-02-20T13:17:18;97281.00;;;12.62;59.77
36598;BME280;22607;49.550;11.940;2023-02-20T13:20:08;97300.25;;;12.63;58.55
36598;BME280;22607;49.550;11.940;2023-02-20T13:22:36;97287.41;;;12.68;59.41
36598;BME280;22607;49.550;11.940;2023-02-20T13:28:01;97274.63;;;12.56;56.86
36598;BME280;22607;49.550;11.940;2023-02-20T13:30:32;97273.31;;;12.52;58.42
36598;BME280;22607;49.550;11.940;2023-02-20T13:33:17;97264.94;;;12.72;56.61
36598;BME280;22607;49.550;11.940;2023-02-20T13:35:52;97270.69;;;12.99;58.18
36598;BME280;22607;49.550;11.940;2023-02-20T13:38:26;97266.38;;;13.06;56.48
36598;BME280;22607;49.550;11.940;2023-02-20T13:51:29;97263.69;;;13.30;55.63
36598;BME280;22607;49.550;11.940;2023-02-20T13:54:23;97239.13;;;12.91;57.81
36598;BME280;22607;49.550;11.940;2023-02-20T13:56:56;97235.66;;;13.29;56.57
36598;BME280;22607;49.550;11.940;2023-02-20T13:59:27;97243.59;;;12.90;57.21
36598;BME280;22607;49.550;11.940;2023-02-20T14:04:27;97225.19;;;13.05;56.71
36598;BME280;22607;49.550;11.940;2023-02-20T14:06:55;97216.69;;;13.33;56.21
36598;BME280;22607;49.550;11.940;2023-02-20T14:09:28;97218.34;;;13.11;56.07
36598;BME280;22607;49.550;11.940;2023-02-20T14:12:12;97216.69;;;13.33;54.75
36598;BME280;22607;49.550;11.940;2023-02-20T14:14:44;97212.22;;;13.34;54.63
36598;BME280;22607;49.550;11.940;2023-02-20T14:17:14;97211.38;;;13.18;55.34
36598;BME280;22607;49.550;11.940;2023-02-20T14:19:44;97205.94;;;13.20;55.50
36598;BME280;22607;49.550;11.940;2023-02-20T14:22:25;97221.97;;;13.33;55.33
36598;BME280;22607;49.550;11.940;2023-02-20T14:25:18;97205.47;;;13.31;52.73
36598;BME280;22607;49.550;11.940;2023-02-20T14:27:46;97203.56;;;13.25;53.33
36598;BME280;22607;49.550;11.940;2023-02-20T14:30:21;97191.31;;;13.47;53.52
36598;BME280;22607;49.550;11.940;2023-02-20T14:32:50;97198.81;;;13.20;52.89
36598;BME280;22607;49.550;11.940;2023-02-20T14:41:21;97192.28;;;13.31;53.30
36598;BME280;22607;49.550;11.940;2023-02-20T14:43:59;97185.19;;;13.17;52.55
36598;BME280;22607;49.550;11.940;2023-02-20T14:46:29;97193.16;;;13.08;54.10
36598;BME280;22607;49.550;11.940;2023-02-20T14:49:11;97196.06;;;13.13;54.40
36598;BME280;22607;49.550;11.940;2023-02-20T14:51:39;97192.09;;;13.18;53.82
36598;BME280;22607;49.550;11.940;2023-02-20T14:54:16;97192.91;;;13.18;52.67
36598;BME280;22607;49.550;11.940;2023-02-20T14:56:44;97201.00;;;13.17;52.76
36598;BME280;22607;49.550;11.940;2023-02-20T14:59:27;97199.38;;;13.16;54.40
36598;BME280;22607;49.550;11.940;2023-02-20T15:01:57;97189.03;;;13.29;54.00
36598;BME280;22607;49.550;11.940;2023-02-20T15:04:26;97172.44;;;13.05;53.72
36598;BME280;22607;49.550;11.940;2023-02-20T15:06:54;97176.44;;;13.01;54.70
36598;BME280;22607;49.550;11.940;2023-02-20T15:09:37;97168.63;;;13.08;54.79
36598;BME280;22607;49.550;11.940;2023-02-20T15:12:04;97160.09;;;13.21;55.04